sensor_id;sensor_type;location;lat;lon;timestamp;temperature;humidity
11569;DHT22;5840;46.894;15.542;2022-07-29T00:00:08;20.60;99.90
11569;DHT22;5840;46.894;15.542;2022-07-29T00:02:36;20.60;99.90
11569;DHT22;5840;46.894;15.542;2022-07-29T00:05:04;20.60;99.90
11569;DHT22;5840;46.894;15.542;2022-07-29T00:07:31;20.60;99.90
11569;DHT22;5840;46.894;15.542;2022-07-29T00:09:58;20.60;99.90
11569;DHT22;5840;46.894;15.542;2022-07-29T00:12:25;20.60;99.90
11569;DHT22;5840;46.894;15.542;2022-07-29T00:14:53;20.50;99.90
11569;DHT22;5840;46.894;15.542;2022-07-29T00:17:22;20.50;99.90
11569;DHT22;5840;46.894;15.542;2022-07-29T00:19:49;20.50;99.90
11569;DHT22;5840;46.894;15.542;2022-07-29T00:22:16;20.50;99.90
11569;DHT22;5840;46.894;15.542;2022-07-29T00:24:43;20.40;99.90
11569;DHT22;5840;46.894;15.542;2022-07-29T00:27:10;20.40;99.90
11569;DHT22;5840;46.894;15.542;2022-07-29T00:29:37;20.30;99.90
11569;DHT22;5840;46.894;15.542;2022-07-29T00:32:05;20.30;99.90
11569;DHT22;5840;46.894;15.542;2022-07-29T00:34:33;20.30;99.90
11569;DHT22;5840;46.894;15.542;2022-07-29T00:37:18;20.20;99.90
11569;DHT22;5840;46.894;15.542;2022-07-29T00:39:45;20.20;99.90
11569;DHT22;5840;46.894;15.542;2022-07-29T00:42:12;20.20;99.90
11569;DHT22;5840;46.894;15.542;2022-07-29T00:44:39;20.20;99.90
11569;DHT22;5840;46.894;15.542;2022-07-29T00:47:07;20.20;99.90
11569;DHT22;5840;46.894;15.542;2022-07-29T00:49:36;20.20;99.90
11569;DHT22;5840;46.894;15.542;2022-07-29T00:52:04;20.20;99.90
11569;DHT22;5840;46.894;15.542;2022-07-29T00:54:32;20.20;99.90
11569;DHT22;5840;46.894;15.542;2022-07-29T00:56:59;20.10;99.90
11569;DHT22;5840;46.894;15.542;2022-07-29T00:59:27;20.10;99.90
11569;DHT22;5840;46.894;15.542;2022-07-29T01:01:55;20.10;99.90
11569;DHT22;5840;46.894;15.542;2022-07-29T01:04:22;20.10;99.90
11569;DHT22;5840;46.894;15.542;2022-07-29T01:06:51;20.10;99.90
11569;DHT22;5840;46.894;15.542;2022-07-29T01:09:18;20.10;99.90
11569;DHT22;5840;46.894;15.542;2022-07-29T01:11:47;20.10;99.90
11569;DHT22;5840;46.894;15.542;2022-07-29T01:14:14;20.10;99.90
11569;DHT22;5840;46.894;15.542;2022-07-29T01:16:51;20.10;99.90
11569;DHT22;5840;46.894;15.542;2022-07-29T01:19:36;20.10;99.90
11569;DHT22;5840;46.894;15.542;2022-07-29T01:22:20;20.10;99.90
11569;DHT22;5840;46.894;15.542;2022-07-29T01:25:17;20.00;99.90
11569;DHT22;5840;46.894;15.542;2022-07-29T01:28:01;19.90;99.90
11569;DHT22;5840;46.894;15.542;2022-07-29T01:30:35;19.90;99.90
11569;DHT22;5840;46.894;15.542;2022-07-29T01:33:07;19.90;99.90
11569;DHT22;5840;46.894;15.542;2022-07-29T01:35:39;19.90;99.90
11569;DHT22;5840;46.894;15.542;2022-07-29T01:38:09;19.90;99.90
11569;DHT22;5840;46.894;15.542;2022-07-29T01:40:49;19.90;99.90
11569;DHT22;5840;46.894;15.542;2022-07-29T01:43:20;19.90;99.90
11569;DHT22;5840;46.894;15.542;2022-07-29T01:45:53;19.90;99.90
11569;DHT22;5840;46.894;15.542;2022-07-29T01:48:29;19.80;99.90
11569;DHT22;5840;46.894;15.542;2022-07-29T01:51:02;19.80;99.90
11569;DHT22;5840;46.894;15.542;2022-07-29T01:53:33;19.80;99.90
11569;DHT22;5840;46.894;15.542;2022-07-29T01:56:02;19.80;99.90
11569;DHT22;5840;46.894;15.542;2022-07-29T01:58:31;19.70;99.90
11569;DHT22;5840;46.894;15.542;2022-07-29T02:01:01;19.70;99.90
11569;DHT22;5840;46.894;15.542;2022-07-29T02:03:30;19.60;99.90
11569;DHT22;5840;46.894;15.542;2022-07-29T02:05:59;19.60;99.90
11569;DHT22;5840;46.894;15.542;2022-07-29T02:08:28;19.50;99.90
11569;DHT22;5840;46.894;15.542;2022-07-29T02:10:58;19.50;99.90
11569;DHT22;5840;46.894;15.542;2022-07-29T02:13:27;19.50;99.90
11569;DHT22;5840;46.894;15.542;2022-07-29T02:15:55;19.50;99.90
11569;DHT22;5840;46.894;15.542;2022-07-29T02:18:28;19.40;99.90
11569;DHT22;5840;46.894;15.542;2022-07-29T02:20:59;19.40;99.90
11569;DHT22;5840;46.894;15.542;2022-07-29T02:23:26;19.40;99.90
11569;DHT22;5840;46.894;15.542;2022-07-29T02:25:55;19.30;99.90
11569;DHT22;5840;46.894;15.542;2022-07-29T02:28:25;19.30;99.90
11569;DHT22;5840;46.894;15.542;2022-07-29T02:30:54;19.20;99.90
11569;DHT22;5840;46.894;15.542;2022-07-29T02:33:24;19.20;99.90
11569;DHT22;5840;46.894;15.542;2022-07-29T02:35:52;19.10;99.90
11569;DHT22;5840;46.894;15.542;2022-07-29T02:38:21;19.10;99.90
11569;DHT22;5840;46.894;15.542;2022-07-29T02:41:15;19.10;99.90
11569;DHT22;5840;46.894;15.542;2022-07-29T02:43:45;19.10;99.90
11569;DHT22;5840;46.894;15.542;2022-07-29T02:46:16;19.20;99.90
11569;DHT22;5840;46.894;15.542;2022-07-29T02:48:53;19.20;99.90
11569;DHT22;5840;46.894;15.542;2022-07-29T02:51:27;19.20;99.90
11569;DHT22;5840;46.894;15.542;2022-07-29T02:53:57;19.10;99.90
11569;DHT22;5840;46.894;15.542;2022-07-29T02:56:28;19.10;99.90
11569;DHT22;5840;46.894;15.542;2022-07-29T02:59:04;19.10;99.90
11569;DHT22;5840;46.894;15.542;2022-07-29T03:01:33;19.00;99.90
11569;DHT22;5840;46.894;15.542;2022-07-29T03:04:04;19.00;99.90
11569;DHT22;5840;46.894;15.542;2022-07-29T03:06:33;19.00;99.90
11569;DHT22;5840;46.894;15.542;2022-07-29T03:09:01;19.00;99.90
11569;DHT22;5840;46.894;15.542;2022-07-29T03:11:29;18.90;99.90
11569;DHT22;5840;46.894;15.542;2022-07-29T03:13:56;18.90;99.90
11569;DHT22;5840;46.894;15.542;2022-07-29T03:16:24;18.80;99.90
11569;DHT22;5840;46.894;15.542;2022-07-29T03:18:51;18.80;99.90
11569;DHT22;5840;46.894;15.542;2022-07-29T03:21:20;18.80;99.90
11569;DHT22;5840;46.894;15.542;2022-07-29T03:23:47;18.80;99.90
11569;DHT22;5840;46.894;15.542;2022-07-29T03:26:14;18.80;99.90
11569;DHT22;5840;46.894;15.542;2022-07-29T03:28:41;18.80;99.90
11569;DHT22;5840;46.894;15.542;2022-07-29T03:31:08;18.70;99.90
11569;DHT22;5840;46.894;15.542;2022-07-29T03:33:35;18.70;99.90
11569;DHT22;5840;46.894;15.542;2022-07-29T03:36:02;18.70;99.90
11569;DHT22;5840;46.894;15.542;2022-07-29T03:38:33;18.70;99.90
11569;DHT22;5840;46.894;15.542;2022-07-29T03:41:04;18.70;99.90
11569;DHT22;5840;46.894;15.542;2022-07-29T03:43:36;18.70;99.90
11569;DHT22;5840;46.894;15.542;2022-07-29T03:46:05;18.60;99.90
11569;DHT22;5840;46.894;15.542;2022-07-29T03:48:34;18.60;99.90
11569;DHT22;5840;46.894;15.542;2022-07-29T03:51:03;18.60;99.90
11569;DHT22;5840;46.894;15.542;2022-07-29T03:53:32;18.50;99.90
11569;DHT22;5840;46.894;15.542;2022-07-29T03:56:02;18.50;99.90
11569;DHT22;5840;46.894;15.542;2022-07-29T03:58:30;18.50;99.90
11569;DHT22;5840;46.894;15.542;2022-07-29T04:00:58;18.50;99.90
11569;DHT22;5840;46.894;15.542;2022-07-29T04:03:26;18.60;99.90
11569;DHT22;5840;46.894;15.542;2022-07-29T04:06:04;18.60;99.90
11569;DHT22;5840;46.894;15.542;2022-07-29T04:08:34;18.60;99.90
11569;DHT22;5840;46.894;15.542;2022-07-29T04:11:01;18.60;99.90
11569;DHT22;5840;46.894;15.542;2022-07-29T04:13:28;18.60;99.90
11569;DHT22;5840;46.894;15.542;2022-07-29T04:15:55;18.50;99.90
11569;DHT22;5840;46.894;15.542;2022-07-29T04:18:23;18.50;99.90
11569;DHT22;5840;46.894;15.542;2022-07-29T04:20:50;18.50;99.90
11569;DHT22;5840;46.894;15.542;2022-07-29T04:23:17;18.50;99.90
11569;DHT22;5840;46.894;15.542;2022-07-29T04:25:45;18.50;99.90
11569;DHT22;5840;46.894;15.542;2022-07-29T04:28:12;18.50;99.90
11569;DHT22;5840;46.894;15.542;2022-07-29T04:30:39;18.60;99.90
11569;DHT22;5840;46.894;15.542;2022-07-29T04:33:07;18.50;99.90
11569;DHT22;5840;46.894;15.542;2022-07-29T04:35:35;18.50;99.90
11569;DHT22;5840;46.894;15.542;2022-07-29T04:38:03;18.60;99.90
11569;DHT22;5840;46.894;15.542;2022-07-29T04:40:31;18.60;99.90
11569;DHT22;5840;46.894;15.542;2022-07-29T04:43:00;18.60;99.90
11569;DHT22;5840;46.894;15.542;2022-07-29T04:45:28;18.60;99.90
11569;DHT22;5840;46.894;15.542;2022-07-29T04:47:55;18.60;99.90
11569;DHT22;5840;46.894;15.542;2022-07-29T04:50:22;18.70;99.90
11569;DHT22;5840;46.894;15.542;2022-07-29T04:52:50;18.70;99.90
11569;DHT22;5840;46.894;15.542;2022-07-29T04:55:17;18.70;99.90
11569;DHT22;5840;46.894;15.542;2022-07-29T04:57:44;18.70;99.90
11569;DHT22;5840;46.894;15.542;2022-07-29T05:00:13;18.70;99.90
11569;DHT22;5840;46.894;15.542;2022-07-29T05:02:40;18.70;99.90
11569;DHT22;5840;46.894;15.542;2022-07-29T05:05:08;18.70;99.90
11569;DHT22;5840;46.894;15.542;2022-07-29T05:07:35;18.80;99.90
11569;DHT22;5840;46.894;15.542;2022-07-29T05:10:03;18.80;99.90
11569;DHT22;5840;46.894;15.542;2022-07-29T05:12:30;18.80;99.90
11569;DHT22;5840;46.894;15.542;2022-07-29T05:14:57;18.90;99.90
11569;DHT22;5840;46.894;15.542;2022-07-29T05:17:26;18.90;99.90
11569;DHT22;5840;46.894;15.542;2022-07-29T05:19:53;19.00;99.90
11569;DHT22;5840;46.894;15.542;2022-07-29T05:22:20;19.10;99.90
11569;DHT22;5840;46.894;15.542;2022-07-29T05:24:47;19.10;99.90
11569;DHT22;5840;46.894;15.542;2022-07-29T05:27:15;19.20;99.90
11569;DHT22;5840;46.894;15.542;2022-07-29T05:29:41;19.30;99.90
11569;DHT22;5840;46.894;15.542;2022-07-29T05:32:09;19.50;99.90
11569;DHT22;5840;46.894;15.542;2022-07-29T05:34:37;19.50;99.90
11569;DHT22;5840;46.894;15.542;2022-07-29T05:37:04;19.60;99.90
11569;DHT22;5840;46.894;15.542;2022-07-29T05:39:32;19.70;99.90
11569;DHT22;5840;46.894;15.542;2022-07-29T05:41:59;19.80;99.90
11569;DHT22;5840;46.894;15.542;2022-07-29T05:44:26;19.90;99.90
11569;DHT22;5840;46.894;15.542;2022-07-29T05:46:53;20.00;99.90
11569;DHT22;5840;46.894;15.542;2022-07-29T05:49:20;20.20;99.90
11569;DHT22;5840;46.894;15.542;2022-07-29T05:51:48;20.30;99.90
11569;DHT22;5840;46.894;15.542;2022-07-29T05:54:16;20.30;99.90
11569;DHT22;5840;46.894;15.542;2022-07-29T05:56:43;20.40;99.90
11569;DHT22;5840;46.894;15.542;2022-07-29T05:59:10;20.40;99.90
11569;DHT22;5840;46.894;15.542;2022-07-29T06:01:37;20.50;99.90
11569;DHT22;5840;46.894;15.542;2022-07-29T06:04:05;20.50;99.90
11569;DHT22;5840;46.894;15.542;2022-07-29T06:06:33;20.60;99.90
11569;DHT22;5840;46.894;15.542;2022-07-29T06:09:01;20.70;99.90
11569;DHT22;5840;46.894;15.542;2022-07-29T06:11:28;20.80;99.90
11569;DHT22;5840;46.894;15.542;2022-07-29T06:13:55;20.90;99.90
11569;DHT22;5840;46.894;15.542;2022-07-29T06:16:22;20.90;99.90
11569;DHT22;5840;46.894;15.542;2022-07-29T06:18:49;21.00;99.90
11569;DHT22;5840;46.894;15.542;2022-07-29T06:21:17;21.20;99.90
11569;DHT22;5840;46.894;15.542;2022-07-29T06:23:44;21.30;99.90
11569;DHT22;5840;46.894;15.542;2022-07-29T06:26:13;21.50;99.90
11569;DHT22;5840;46.894;15.542;2022-07-29T06:28:40;21.70;99.90
11569;DHT22;5840;46.894;15.542;2022-07-29T06:31:07;21.90;99.90
11569;DHT22;5840;46.894;15.542;2022-07-29T06:33:34;22.10;99.90
11569;DHT22;5840;46.894;15.542;2022-07-29T06:36:03;22.30;99.90
11569;DHT22;5840;46.894;15.542;2022-07-29T06:38:30;22.50;99.90
11569;DHT22;5840;46.894;15.542;2022-07-29T06:40:57;22.70;99.90
11569;DHT22;5840;46.894;15.542;2022-07-29T06:43:30;22.80;99.90
11569;DHT22;5840;46.894;15.542;2022-07-29T06:46:00;23.00;99.90
11569;DHT22;5840;46.894;15.542;2022-07-29T06:48:28;23.10;99.90
11569;DHT22;5840;46.894;15.542;2022-07-29T06:50:55;23.30;99.90
11569;DHT22;5840;46.894;15.542;2022-07-29T06:53:22;23.40;99.90
11569;DHT22;5840;46.894;15.542;2022-07-29T06:55:50;23.60;99.90
11569;DHT22;5840;46.894;15.542;2022-07-29T06:58:17;23.80;99.90
11569;DHT22;5840;46.894;15.542;2022-07-29T07:00:47;24.00;99.90
11569;DHT22;5840;46.894;15.542;2022-07-29T07:03:14;24.30;99.90
11569;DHT22;5840;46.894;15.542;2022-07-29T07:05:42;24.50;99.90
11569;DHT22;5840;46.894;15.542;2022-07-29T07:08:10;24.70;99.90
11569;DHT22;5840;46.894;15.542;2022-07-29T07:10:37;24.80;99.90
11569;DHT22;5840;46.894;15.542;2022-07-29T07:13:05;24.90;99.90
11569;DHT22;5840;46.894;15.542;2022-07-29T07:15:32;24.90;99.90
11569;DHT22;5840;46.894;15.542;2022-07-29T07:18:00;24.70;99.90
11569;DHT22;5840;46.894;15.542;2022-07-29T07:20:27;24.70;99.90
11569;DHT22;5840;46.894;15.542;2022-07-29T07:22:54;24.50;99.90
11569;DHT22;5840;46.894;15.542;2022-07-29T07:25:21;24.50;99.90
11569;DHT22;5840;46.894;15.542;2022-07-29T07:27:48;24.60;99.90
11569;DHT22;5840;46.894;15.542;2022-07-29T07:30:15;24.80;99.90
11569;DHT22;5840;46.894;15.542;2022-07-29T07:32:42;25.00;99.90
11569;DHT22;5840;46.894;15.542;2022-07-29T07:35:10;25.30;99.90
11569;DHT22;5840;46.894;15.542;2022-07-29T07:37:38;25.60;99.90
11569;DHT22;5840;46.894;15.542;2022-07-29T07:40:07;25.80;99.90
11569;DHT22;5840;46.894;15.542;2022-07-29T07:42:34;26.00;99.90
11569;DHT22;5840;46.894;15.542;2022-07-29T07:45:01;26.30;99.90
11569;DHT22;5840;46.894;15.542;2022-07-29T07:47:28;26.40;99.90
11569;DHT22;5840;46.894;15.542;2022-07-29T07:49:55;26.60;99.90
11569;DHT22;5840;46.894;15.542;2022-07-29T07:52:23;26.70;99.90
11569;DHT22;5840;46.894;15.542;2022-07-29T07:54:50;26.80;99.90
11569;DHT22;5840;46.894;15.542;2022-07-29T07:57:18;27.00;99.90
11569;DHT22;5840;46.894;15.542;2022-07-29T07:59:45;27.10;99.90
11569;DHT22;5840;46.894;15.542;2022-07-29T08:02:12;27.20;99.80
11569;DHT22;5840;46.894;15.542;2022-07-29T08:04:39;27.40;99.70
11569;DHT22;5840;46.894;15.542;2022-07-29T08:07:06;27.60;99.60
11569;DHT22;5840;46.894;15.542;2022-07-29T08:09:36;27.80;99.30
11569;DHT22;5840;46.894;15.542;2022-07-29T08:12:03;28.00;99.90
11569;DHT22;5840;46.894;15.542;2022-07-29T08:14:31;28.10;99.80
11569;DHT22;5840;46.894;15.542;2022-07-29T08:16:59;28.30;95.80
11569;DHT22;5840;46.894;15.542;2022-07-29T08:19:26;28.40;97.20
11569;DHT22;5840;46.894;15.542;2022-07-29T08:21:52;28.60;97.60
11569;DHT22;5840;46.894;15.542;2022-07-29T08:24:20;28.70;98.50
11569;DHT22;5840;46.894;15.542;2022-07-29T08:27:05;29.00;98.30
11569;DHT22;5840;46.894;15.542;2022-07-29T08:29:32;29.20;96.10
11569;DHT22;5840;46.894;15.542;2022-07-29T08:31:59;28.80;93.30
11569;DHT22;5840;46.894;15.542;2022-07-29T08:34:26;28.70;94.10
11569;DHT22;5840;46.894;15.542;2022-07-29T08:36:54;28.70;95.30
11569;DHT22;5840;46.894;15.542;2022-07-29T08:39:21;29.10;95.30
11569;DHT22;5840;46.894;15.542;2022-07-29T08:41:48;29.20;94.90
11569;DHT22;5840;46.894;15.542;2022-07-29T08:44:18;29.20;94.20
11569;DHT22;5840;46.894;15.542;2022-07-29T08:46:45;29.20;94.30
11569;DHT22;5840;46.894;15.542;2022-07-29T08:49:12;29.10;93.70
11569;DHT22;5840;46.894;15.542;2022-07-29T08:51:39;28.90;93.70
11569;DHT22;5840;46.894;15.542;2022-07-29T08:54:08;28.50;93.80
11569;DHT22;5840;46.894;15.542;2022-07-29T08:56:36;28.30;94.20
11569;DHT22;5840;46.894;15.542;2022-07-29T08:59:05;27.90;94.70
11569;DHT22;5840;46.894;15.542;2022-07-29T09:01:36;27.60;95.50
11569;DHT22;5840;46.894;15.542;2022-07-29T09:04:07;27.30;95.50
11569;DHT22;5840;46.894;15.542;2022-07-29T09:06:39;27.10;95.80
11569;DHT22;5840;46.894;15.542;2022-07-29T09:09:08;26.90;95.80
11569;DHT22;5840;46.894;15.542;2022-07-29T09:11:36;26.70;95.80
11569;DHT22;5840;46.894;15.542;2022-07-29T09:14:03;26.70;95.80
11569;DHT22;5840;46.894;15.542;2022-07-29T09:16:50;26.70;96.40
11569;DHT22;5840;46.894;15.542;2022-07-29T09:19:25;26.70;96.50
11569;DHT22;5840;46.894;15.542;2022-07-29T09:21:53;26.70;97.40
11569;DHT22;5840;46.894;15.542;2022-07-29T09:24:37;26.80;97.70
11569;DHT22;5840;46.894;15.542;2022-07-29T09:27:10;26.80;97.20
11569;DHT22;5840;46.894;15.542;2022-07-29T09:29:37;26.90;96.90
11569;DHT22;5840;46.894;15.542;2022-07-29T09:32:09;26.90;97.50
11569;DHT22;5840;46.894;15.542;2022-07-29T09:34:36;27.10;97.20
11569;DHT22;5840;46.894;15.542;2022-07-29T09:37:04;27.30;96.00
11569;DHT22;5840;46.894;15.542;2022-07-29T09:39:33;27.60;97.50
11569;DHT22;5840;46.894;15.542;2022-07-29T09:42:02;27.80;94.60
11569;DHT22;5840;46.894;15.542;2022-07-29T09:44:41;28.00;94.20
11569;DHT22;5840;46.894;15.542;2022-07-29T09:47:10;28.40;94.50
11569;DHT22;5840;46.894;15.542;2022-07-29T09:49:53;28.50;93.70
11569;DHT22;5840;46.894;15.542;2022-07-29T09:52:20;28.60;92.80
11569;DHT22;5840;46.894;15.542;2022-07-29T09:54:47;28.70;93.70
11569;DHT22;5840;46.894;15.542;2022-07-29T09:57:25;28.70;92.70
11569;DHT22;5840;46.894;15.542;2022-07-29T09:59:57;28.50;91.80
11569;DHT22;5840;46.894;15.542;2022-07-29T10:02:30;28.40;92.30
11569;DHT22;5840;46.894;15.542;2022-07-29T10:04:57;28.10;92.20
11569;DHT22;5840;46.894;15.542;2022-07-29T10:07:24;28.00;92.90
11569;DHT22;5840;46.894;15.542;2022-07-29T10:09:56;27.90;93.00
11569;DHT22;5840;46.894;15.542;2022-07-29T10:12:23;27.70;92.60
11569;DHT22;5840;46.894;15.542;2022-07-29T10:14:51;27.60;92.20
11569;DHT22;5840;46.894;15.542;2022-07-29T10:17:19;27.40;92.80
11569;DHT22;5840;46.894;15.542;2022-07-29T10:19:48;27.20;93.10
11569;DHT22;5840;46.894;15.542;2022-07-29T10:22:16;27.10;93.50
11569;DHT22;5840;46.894;15.542;2022-07-29T10:24:43;27.00;93.30
11569;DHT22;5840;46.894;15.542;2022-07-29T10:27:11;27.00;93.80
11569;DHT22;5840;46.894;15.542;2022-07-29T10:29:38;27.00;93.30
11569;DHT22;5840;46.894;15.542;2022-07-29T10:32:14;27.10;93.10
11569;DHT22;5840;46.894;15.542;2022-07-29T10:35:08;27.10;94.40
11569;DHT22;5840;46.894;15.542;2022-07-29T10:37:46;27.20;93.30
11569;DHT22;5840;46.894;15.542;2022-07-29T10:40:28;27.20;93.90
11569;DHT22;5840;46.894;15.542;2022-07-29T10:43:18;27.40;94.10
11569;DHT22;5840;46.894;15.542;2022-07-29T10:45:47;27.50;93.50
11569;DHT22;5840;46.894;15.542;2022-07-29T10:48:14;27.60;93.30
11569;DHT22;5840;46.894;15.542;2022-07-29T10:50:57;27.80;93.90
11569;DHT22;5840;46.894;15.542;2022-07-29T10:53:25;28.00;93.20
11569;DHT22;5840;46.894;15.542;2022-07-29T10:56:23;28.10;93.40
11569;DHT22;5840;46.894;15.542;2022-07-29T10:59:24;28.20;92.60
11569;DHT22;5840;46.894;15.542;2022-07-29T11:01:54;28.20;92.30
11569;DHT22;5840;46.894;15.542;2022-07-29T11:07:23;28.40;91.70
11569;DHT22;5840;46.894;15.542;2022-07-29T11:10:21;28.40;92.30
11569;DHT22;5840;46.894;15.542;2022-07-29T11:12:49;28.60;92.50
11569;DHT22;5840;46.894;15.542;2022-07-29T11:15:18;28.80;90.80
11569;DHT22;5840;46.894;15.542;2022-07-29T11:18:07;29.00;92.00
11569;DHT22;5840;46.894;15.542;2022-07-29T11:20:36;29.20;90.20
11569;DHT22;5840;46.894;15.542;2022-07-29T11:23:26;29.40;92.20
11569;DHT22;5840;46.894;15.542;2022-07-29T11:26:15;29.60;90.20
11569;DHT22;5840;46.894;15.542;2022-07-29T11:28:54;29.70;86.90
11569;DHT22;5840;46.894;15.542;2022-07-29T11:31:38;29.60;90.60
11569;DHT22;5840;46.894;15.542;2022-07-29T11:34:21;29.70;88.50
11569;DHT22;5840;46.894;15.542;2022-07-29T11:40:13;29.70;86.40
11569;DHT22;5840;46.894;15.542;2022-07-29T11:42:45;29.70;87.80
11569;DHT22;5840;46.894;15.542;2022-07-29T11:45:14;29.70;90.10
11569;DHT22;5840;46.894;15.542;2022-07-29T11:47:50;29.70;90.70
11569;DHT22;5840;46.894;15.542;2022-07-29T11:50:27;29.70;89.30
11569;DHT22;5840;46.894;15.542;2022-07-29T11:52:54;29.70;87.50
11569;DHT22;5840;46.894;15.542;2022-07-29T11:55:23;29.80;89.00
11569;DHT22;5840;46.894;15.542;2022-07-29T11:57:52;30.00;85.70
11569;DHT22;5840;46.894;15.542;2022-07-29T12:00:29;30.20;84.80
11569;DHT22;5840;46.894;15.542;2022-07-29T12:02:57;30.40;85.60
11569;DHT22;5840;46.894;15.542;2022-07-29T12:05:35;30.40;82.70
11569;DHT22;5840;46.894;15.542;2022-07-29T12:08:12;30.40;83.80
11569;DHT22;5840;46.894;15.542;2022-07-29T12:10:41;30.30;81.80
11569;DHT22;5840;46.894;15.542;2022-07-29T12:13:09;30.30;88.20
11569;DHT22;5840;46.894;15.542;2022-07-29T12:15:36;30.60;89.00
11569;DHT22;5840;46.894;15.542;2022-07-29T12:18:13;30.90;84.50
11569;DHT22;5840;46.894;15.542;2022-07-29T12:20:42;31.10;80.00
11569;DHT22;5840;46.894;15.542;2022-07-29T12:23:09;31.30;81.50
11569;DHT22;5840;46.894;15.542;2022-07-29T12:25:40;31.30;82.60
11569;DHT22;5840;46.894;15.542;2022-07-29T12:28:09;31.30;82.30
11569;DHT22;5840;46.894;15.542;2022-07-29T12:30:41;31.50;82.00
11569;DHT22;5840;46.894;15.542;2022-07-29T12:33:20;31.60;81.10
11569;DHT22;5840;46.894;15.542;2022-07-29T12:35:50;31.40;79.80
11569;DHT22;5840;46.894;15.542;2022-07-29T12:38:17;31.30;83.90
11569;DHT22;5840;46.894;15.542;2022-07-29T12:40:48;31.20;79.50
11569;DHT22;5840;46.894;15.542;2022-07-29T12:43:18;31.20;81.70
11569;DHT22;5840;46.894;15.542;2022-07-29T12:45:46;31.20;82.60
11569;DHT22;5840;46.894;15.542;2022-07-29T12:48:14;31.10;82.80
11569;DHT22;5840;46.894;15.542;2022-07-29T12:50:55;31.00;84.60
11569;DHT22;5840;46.894;15.542;2022-07-29T12:53:23;30.90;85.40
11569;DHT22;5840;46.894;15.542;2022-07-29T12:55:53;30.70;83.40
11569;DHT22;5840;46.894;15.542;2022-07-29T12:58:30;30.50;85.10
11569;DHT22;5840;46.894;15.542;2022-07-29T13:01:09;30.40;85.20
11569;DHT22;5840;46.894;15.542;2022-07-29T13:03:44;30.30;86.40
11569;DHT22;5840;46.894;15.542;2022-07-29T13:06:31;30.10;87.90
11569;DHT22;5840;46.894;15.542;2022-07-29T13:09:00;30.00;87.00
11569;DHT22;5840;46.894;15.542;2022-07-29T13:11:31;30.00;90.10
11569;DHT22;5840;46.894;15.542;2022-07-29T13:13:58;29.90;90.90
11569;DHT22;5840;46.894;15.542;2022-07-29T13:16:25;29.80;90.60
11569;DHT22;5840;46.894;15.542;2022-07-29T13:19:08;29.60;92.20
11569;DHT22;5840;46.894;15.542;2022-07-29T13:21:36;29.50;92.00
11569;DHT22;5840;46.894;15.542;2022-07-29T13:24:05;29.40;93.00
11569;DHT22;5840;46.894;15.542;2022-07-29T13:26:34;29.30;92.10
11569;DHT22;5840;46.894;15.542;2022-07-29T13:29:02;29.10;92.10
11569;DHT22;5840;46.894;15.542;2022-07-29T13:31:29;29.00;92.20
11569;DHT22;5840;46.894;15.542;2022-07-29T13:33:56;28.90;92.80
11569;DHT22;5840;46.894;15.542;2022-07-29T13:36:24;28.90;92.90
11569;DHT22;5840;46.894;15.542;2022-07-29T13:38:52;28.90;93.50
11569;DHT22;5840;46.894;15.542;2022-07-29T13:41:19;29.00;93.30
11569;DHT22;5840;46.894;15.542;2022-07-29T13:43:47;29.20;94.20
11569;DHT22;5840;46.894;15.542;2022-07-29T13:46:14;29.60;93.00
11569;DHT22;5840;46.894;15.542;2022-07-29T13:48:41;30.10;92.10
11569;DHT22;5840;46.894;15.542;2022-07-29T13:51:08;30.40;91.40
11569;DHT22;5840;46.894;15.542;2022-07-29T13:53:35;30.60;90.70
11569;DHT22;5840;46.894;15.542;2022-07-29T13:56:02;30.60;86.10
11569;DHT22;5840;46.894;15.542;2022-07-29T13:58:31;30.40;85.30
11569;DHT22;5840;46.894;15.542;2022-07-29T14:00:59;30.10;85.60
11569;DHT22;5840;46.894;15.542;2022-07-29T14:03:26;29.90;89.20
11569;DHT22;5840;46.894;15.542;2022-07-29T14:05:53;29.70;88.70
11569;DHT22;5840;46.894;15.542;2022-07-29T14:08:22;29.60;86.80
11569;DHT22;5840;46.894;15.542;2022-07-29T14:10:49;29.50;88.10
11569;DHT22;5840;46.894;15.542;2022-07-29T14:13:16;29.40;90.10
11569;DHT22;5840;46.894;15.542;2022-07-29T14:15:42;29.30;90.60
11569;DHT22;5840;46.894;15.542;2022-07-29T14:18:11;29.30;90.70
11569;DHT22;5840;46.894;15.542;2022-07-29T14:20:38;29.30;90.80
11569;DHT22;5840;46.894;15.542;2022-07-29T14:23:05;29.30;91.30
11569;DHT22;5840;46.894;15.542;2022-07-29T14:25:31;29.30;91.40
11569;DHT22;5840;46.894;15.542;2022-07-29T14:27:58;29.40;91.30
11569;DHT22;5840;46.894;15.542;2022-07-29T14:30:25;29.40;91.70
11569;DHT22;5840;46.894;15.542;2022-07-29T14:32:52;29.40;91.30
11569;DHT22;5840;46.894;15.542;2022-07-29T14:35:21;29.40;91.30
11569;DHT22;5840;46.894;15.542;2022-07-29T14:37:48;29.40;91.60
11569;DHT22;5840;46.894;15.542;2022-07-29T14:40:15;29.40;92.20
11569;DHT22;5840;46.894;15.542;2022-07-29T14:42:42;29.50;91.80
11569;DHT22;5840;46.894;15.542;2022-07-29T14:45:09;29.60;91.30
11569;DHT22;5840;46.894;15.542;2022-07-29T14:47:37;29.70;90.30
11569;DHT22;5840;46.894;15.542;2022-07-29T14:50:06;29.80;90.50
11569;DHT22;5840;46.894;15.542;2022-07-29T14:52:34;29.90;90.30
11569;DHT22;5840;46.894;15.542;2022-07-29T14:55:02;30.00;90.50
11569;DHT22;5840;46.894;15.542;2022-07-29T14:57:29;30.00;90.30
11569;DHT22;5840;46.894;15.542;2022-07-29T14:59:56;30.00;90.70
11569;DHT22;5840;46.894;15.542;2022-07-29T15:02:23;29.90;90.50
11569;DHT22;5840;46.894;15.542;2022-07-29T15:04:50;30.00;90.60
11569;DHT22;5840;46.894;15.542;2022-07-29T15:07:17;30.00;90.10
11569;DHT22;5840;46.894;15.542;2022-07-29T15:09:45;30.00;90.70
11569;DHT22;5840;46.894;15.542;2022-07-29T15:12:12;30.10;90.80
11569;DHT22;5840;46.894;15.542;2022-07-29T15:14:39;30.10;90.10
11569;DHT22;5840;46.894;15.542;2022-07-29T15:17:06;30.10;90.00
11569;DHT22;5840;46.894;15.542;2022-07-29T15:19:33;30.10;90.20
11569;DHT22;5840;46.894;15.542;2022-07-29T15:22:00;30.20;91.00
11569;DHT22;5840;46.894;15.542;2022-07-29T15:24:26;30.20;90.20
11569;DHT22;5840;46.894;15.542;2022-07-29T15:26:55;30.20;88.00
11569;DHT22;5840;46.894;15.542;2022-07-29T15:29:22;30.20;89.30
11569;DHT22;5840;46.894;15.542;2022-07-29T15:31:49;30.20;88.50
11569;DHT22;5840;46.894;15.542;2022-07-29T15:34:16;30.10;88.90
11569;DHT22;5840;46.894;15.542;2022-07-29T15:36:43;30.10;87.20
11569;DHT22;5840;46.894;15.542;2022-07-29T15:39:10;30.10;85.70
11569;DHT22;5840;46.894;15.542;2022-07-29T15:41:37;30.10;84.70
11569;DHT22;5840;46.894;15.542;2022-07-29T15:44:05;30.10;84.80
11569;DHT22;5840;46.894;15.542;2022-07-29T15:46:32;30.00;84.30
11569;DHT22;5840;46.894;15.542;2022-07-29T15:49:16;30.00;84.10
11569;DHT22;5840;46.894;15.542;2022-07-29T15:51:43;29.90;84.00